sensor_id;sensor_type;location;lat;lon;timestamp;temperature;humidity
74294;DHT22;64044;59.904;10.738;2022-12-07T00:01:14;2.50;66.70
74294;DHT22;64044;59.904;10.738;2022-12-07T00:03:41;2.50;66.50
74294;DHT22;64044;59.904;10.738;2022-12-07T00:06:08;2.50;66.50
74294;DHT22;64044;59.904;10.738;2022-12-07T00:08:35;2.50;66.40
74294;DHT22;64044;59.904;10.738;2022-12-07T00:11:18;2.50;66.30
74294;DHT22;64044;59.904;10.738;2022-12-07T00:13:45;2.50;66.00
74294;DHT22;64044;59.904;10.738;2022-12-07T00:16:15;2.50;66.10
74294;DHT22;64044;59.904;10.738;2022-12-07T00:18:42;2.50;66.00
74294;DHT22;64044;59.904;10.738;2022-12-07T00:21:14;2.50;66.10
74294;DHT22;64044;59.904;10.738;2022-12-07T00:23:41;2.40;66.00
74294;DHT22;64044;59.904;10.738;2022-12-07T00:26:11;2.50;66.10
74294;DHT22;64044;59.904;10.738;2022-12-07T00:28:37;2.40;66.10
74294;DHT22;64044;59.904;10.738;2022-12-07T00:31:08;2.40;66.20
74294;DHT22;64044;59.904;10.738;2022-12-07T00:33:34;2.40;66.00
74294;DHT22;64044;59.904;10.738;2022-12-07T00:36:03;2.40;65.90
74294;DHT22;64044;59.904;10.738;2022-12-07T00:38:30;2.40;65.80
74294;DHT22;64044;59.904;10.738;2022-12-07T00:41:02;2.30;66.30
74294;DHT22;64044;59.904;10.738;2022-12-07T00:43:29;2.30;65.50
74294;DHT22;64044;59.904;10.738;2022-12-07T00:45:55;2.30;65.40
74294;DHT22;64044;59.904;10.738;2022-12-07T00:48:21;2.20;65.30
74294;DHT22;64044;59.904;10.738;2022-12-07T00:50:47;2.20;65.20
74294;DHT22;64044;59.904;10.738;2022-12-07T00:53:13;2.10;65.40
74294;DHT22;64044;59.904;10.738;2022-12-07T00:55:39;2.00;65.30
74294;DHT22;64044;59.904;10.738;2022-12-07T00:58:05;2.00;65.30
74294;DHT22;64044;59.904;10.738;2022-12-07T01:00:31;2.00;65.30
74294;DHT22;64044;59.904;10.738;2022-12-07T01:02:57;1.90;65.20
74294;DHT22;64044;59.904;10.738;2022-12-07T01:05:22;1.80;65.50
74294;DHT22;64044;59.904;10.738;2022-12-07T01:07:48;1.70;65.50
74294;DHT22;64044;59.904;10.738;2022-12-07T01:10:14;1.70;65.30
74294;DHT22;64044;59.904;10.738;2022-12-07T01:12:40;1.70;65.10
74294;DHT22;64044;59.904;10.738;2022-12-07T01:15:07;1.60;65.10
74294;DHT22;64044;59.904;10.738;2022-12-07T01:17:33;1.60;64.90
74294;DHT22;64044;59.904;10.738;2022-12-07T01:19:59;1.60;64.70
74294;DHT22;64044;59.904;10.738;2022-12-07T01:22:24;1.50;64.50
74294;DHT22;64044;59.904;10.738;2022-12-07T01:24:50;1.40;64.50
74294;DHT22;64044;59.904;10.738;2022-12-07T01:27:16;1.40;64.40
74294;DHT22;64044;59.904;10.738;2022-12-07T01:29:41;1.40;64.40
74294;DHT22;64044;59.904;10.738;2022-12-07T01:32:07;1.30;64.30
74294;DHT22;64044;59.904;10.738;2022-12-07T01:34:33;1.20;64.20
74294;DHT22;64044;59.904;10.738;2022-12-07T01:36:58;1.20;64.20
74294;DHT22;64044;59.904;10.738;2022-12-07T01:39:24;1.10;64.20
74294;DHT22;64044;59.904;10.738;2022-12-07T01:41:50;1.10;64.40
74294;DHT22;64044;59.904;10.738;2022-12-07T01:47:26;1.00;64.50
74294;DHT22;64044;59.904;10.738;2022-12-07T01:49:52;1.00;64.60
74294;DHT22;64044;59.904;10.738;2022-12-07T01:54:47;0.90;64.70
74294;DHT22;64044;59.904;10.738;2022-12-07T01:57:15;0.90;64.70
74294;DHT22;64044;59.904;10.738;2022-12-07T01:59:43;0.90;64.70
74294;DHT22;64044;59.904;10.738;2022-12-07T02:04:55;0.80;64.30
74294;DHT22;64044;59.904;10.738;2022-12-07T02:07:23;0.80;64.50
74294;DHT22;64044;59.904;10.738;2022-12-07T02:09:50;0.80;64.90
74294;DHT22;64044;59.904;10.738;2022-12-07T02:12:15;0.80;64.50
74294;DHT22;64044;59.904;10.738;2022-12-07T02:14:41;0.80;64.40
74294;DHT22;64044;59.904;10.738;2022-12-07T02:17:28;0.80;64.40
74294;DHT22;64044;59.904;10.738;2022-12-07T02:28:25;0.80;64.00
74294;DHT22;64044;59.904;10.738;2022-12-07T02:30:45;0.80;63.90
74294;DHT22;64044;59.904;10.738;2022-12-07T02:33:18;0.70;63.80
74294;DHT22;64044;59.904;10.738;2022-12-07T02:38:43;0.70;63.50
74294;DHT22;64044;59.904;10.738;2022-12-07T02:41:16;0.70;63.50
74294;DHT22;64044;59.904;10.738;2022-12-07T02:43:46;0.70;63.40
74294;DHT22;64044;59.904;10.738;2022-12-07T02:46:37;0.60;63.30
74294;DHT22;64044;59.904;10.738;2022-12-07T02:49:04;0.60;62.80
74294;DHT22;64044;59.904;10.738;2022-12-07T02:51:31;0.60;63.00
74294;DHT22;64044;59.904;10.738;2022-12-07T02:53:58;0.60;62.90
74294;DHT22;64044;59.904;10.738;2022-12-07T02:56:43;0.60;62.80
74294;DHT22;64044;59.904;10.738;2022-12-07T03:10:57;0.40;62.80
74294;DHT22;64044;59.904;10.738;2022-12-07T03:16:02;0.40;62.60
74294;DHT22;64044;59.904;10.738;2022-12-07T03:18:30;0.40;62.80
74294;DHT22;64044;59.904;10.738;2022-12-07T03:21:01;0.40;62.90
74294;DHT22;64044;59.904;10.738;2022-12-07T03:23:29;0.40;62.80
74294;DHT22;64044;59.904;10.738;2022-12-07T03:25:59;0.40;62.60
74294;DHT22;64044;59.904;10.738;2022-12-07T03:28:31;0.30;62.40
74294;DHT22;64044;59.904;10.738;2022-12-07T03:31:02;0.30;62.30
74294;DHT22;64044;59.904;10.738;2022-12-07T03:36:40;0.20;62.50
74294;DHT22;64044;59.904;10.738;2022-12-07T03:39:21;0.20;62.50
74294;DHT22;64044;59.904;10.738;2022-12-07T03:41:48;0.10;62.50
74294;DHT22;64044;59.904;10.738;2022-12-07T03:44:15;0.10;62.50
74294;DHT22;64044;59.904;10.738;2022-12-07T03:57:09;-0.10;62.70
74294;DHT22;64044;59.904;10.738;2022-12-07T03:59:36;-0.10;62.90
74294;DHT22;64044;59.904;10.738;2022-12-07T04:02:05;-0.10;63.20
74294;DHT22;64044;59.904;10.738;2022-12-07T04:04:30;-0.20;63.20
74294;DHT22;64044;59.904;10.738;2022-12-07T04:06:56;-0.20;63.30
74294;DHT22;64044;59.904;10.738;2022-12-07T04:09:22;-0.20;63.30
74294;DHT22;64044;59.904;10.738;2022-12-07T04:11:48;-0.30;63.40
74294;DHT22;64044;59.904;10.738;2022-12-07T04:14:14;-0.30;63.40
74294;DHT22;64044;59.904;10.738;2022-12-07T04:16:47;-0.30;63.60
74294;DHT22;64044;59.904;10.738;2022-12-07T04:19:14;-0.40;63.60
74294;DHT22;64044;59.904;10.738;2022-12-07T04:21:40;-0.40;63.60
74294;DHT22;64044;59.904;10.738;2022-12-07T04:24:06;-0.40;63.80
74294;DHT22;64044;59.904;10.738;2022-12-07T04:26:31;-0.50;63.70
74294;DHT22;64044;59.904;10.738;2022-12-07T04:28:57;-0.50;63.70
74294;DHT22;64044;59.904;10.738;2022-12-07T04:31:22;-0.50;63.80
74294;DHT22;64044;59.904;10.738;2022-12-07T04:33:48;-0.50;63.90
74294;DHT22;64044;59.904;10.738;2022-12-07T04:36:14;-0.60;63.90
74294;DHT22;64044;59.904;10.738;2022-12-07T04:38:40;-0.60;64.00
74294;DHT22;64044;59.904;10.738;2022-12-07T04:41:06;-0.60;64.10
74294;DHT22;64044;59.904;10.738;2022-12-07T04:43:33;-0.60;64.20
74294;DHT22;64044;59.904;10.738;2022-12-07T04:45:59;-0.60;64.20
74294;DHT22;64044;59.904;10.738;2022-12-07T04:48:24;-0.70;64.20
74294;DHT22;64044;59.904;10.738;2022-12-07T04:50:50;-0.70;64.20
74294;DHT22;64044;59.904;10.738;2022-12-07T04:53:16;-0.70;64.10
74294;DHT22;64044;59.904;10.738;2022-12-07T04:55:42;-0.80;64.10
74294;DHT22;64044;59.904;10.738;2022-12-07T04:58:07;-0.80;64.00
74294;DHT22;64044;59.904;10.738;2022-12-07T05:00:33;-0.80;63.90
74294;DHT22;64044;59.904;10.738;2022-12-07T05:02:58;-0.90;63.80
74294;DHT22;64044;59.904;10.738;2022-12-07T05:05:24;-0.90;63.80
74294;DHT22;64044;59.904;10.738;2022-12-07T05:07:50;-0.90;63.70
74294;DHT22;64044;59.904;10.738;2022-12-07T05:10:16;-0.90;63.80
74294;DHT22;64044;59.904;10.738;2022-12-07T05:12:42;-0.90;63.70
74294;DHT22;64044;59.904;10.738;2022-12-07T05:15:07;-0.90;63.60
74294;DHT22;64044;59.904;10.738;2022-12-07T05:17:33;-0.90;63.60
74294;DHT22;64044;59.904;10.738;2022-12-07T05:19:59;-1.00;63.50
74294;DHT22;64044;59.904;10.738;2022-12-07T05:22:24;-1.00;63.40
74294;DHT22;64044;59.904;10.738;2022-12-07T05:24:54;-1.00;63.40
74294;DHT22;64044;59.904;10.738;2022-12-07T05:27:20;-1.00;63.40
74294;DHT22;64044;59.904;10.738;2022-12-07T05:29:45;-1.10;63.30
74294;DHT22;64044;59.904;10.738;2022-12-07T05:32:11;-1.10;63.30
74294;DHT22;64044;59.904;10.738;2022-12-07T05:34:36;-1.10;63.40
74294;DHT22;64044;59.904;10.738;2022-12-07T05:37:02;-1.10;63.60
74294;DHT22;64044;59.904;10.738;2022-12-07T05:39:28;-1.20;63.60
74294;DHT22;64044;59.904;10.738;2022-12-07T05:41:53;-1.20;63.60
74294;DHT22;64044;59.904;10.738;2022-12-07T05:44:42;-1.20;63.60
74294;DHT22;64044;59.904;10.738;2022-12-07T05:47:08;-1.20;63.80
74294;DHT22;64044;59.904;10.738;2022-12-07T05:49:34;-1.20;64.00
74294;DHT22;64044;59.904;10.738;2022-12-07T05:52:00;-1.20;64.20
74294;DHT22;64044;59.904;10.738;2022-12-07T05:54:26;-1.20;64.20
74294;DHT22;64044;59.904;10.738;2022-12-07T05:56:51;-1.20;64.20
74294;DHT22;64044;59.904;10.738;2022-12-07T05:59:17;-1.20;64.10
74294;DHT22;64044;59.904;10.738;2022-12-07T06:04:15;-1.20;63.90
74294;DHT22;64044;59.904;10.738;2022-12-07T06:06:41;-1.20;63.80
74294;DHT22;64044;59.904;10.738;2022-12-07T06:09:07;-1.30;63.90
74294;DHT22;64044;59.904;10.738;2022-12-07T06:11:32;-1.20;63.80
74294;DHT22;64044;59.904;10.738;2022-12-07T06:14:16;-1.30;63.70
74294;DHT22;64044;59.904;10.738;2022-12-07T06:16:42;-1.30;63.70
74294;DHT22;64044;59.904;10.738;2022-12-07T06:19:08;-1.30;63.70
74294;DHT22;64044;59.904;10.738;2022-12-07T06:21:34;-1.20;63.90
74294;DHT22;64044;59.904;10.738;2022-12-07T06:23:59;-1.20;63.90
74294;DHT22;64044;59.904;10.738;2022-12-07T06:26:25;-1.20;63.80
74294;DHT22;64044;59.904;10.738;2022-12-07T06:28:50;-1.20;63.80
74294;DHT22;64044;59.904;10.738;2022-12-07T06:31:16;-1.20;63.60
74294;DHT22;64044;59.904;10.738;2022-12-07T06:33:42;-1.20;63.60
74294;DHT22;64044;59.904;10.738;2022-12-07T06:36:08;-1.20;63.50
74294;DHT22;64044;59.904;10.738;2022-12-07T06:38:34;-1.20;63.30
74294;DHT22;64044;59.904;10.738;2022-12-07T06:40:59;-1.20;63.30
74294;DHT22;64044;59.904;10.738;2022-12-07T06:43:25;-1.20;63.20
74294;DHT22;64044;59.904;10.738;2022-12-07T06:45:51;-1.20;63.10
74294;DHT22;64044;59.904;10.738;2022-12-07T06:48:16;-1.20;63.00
74294;DHT22;64044;59.904;10.738;2022-12-07T06:50:45;-1.20;63.00
74294;DHT22;64044;59.904;10.738;2022-12-07T06:53:10;-1.30;62.80
74294;DHT22;64044;59.904;10.738;2022-12-07T06:55:36;-1.30;62.80
74294;DHT22;64044;59.904;10.738;2022-12-07T06:58:01;-1.30;62.70
74294;DHT22;64044;59.904;10.738;2022-12-07T07:00:28;-1.30;62.80
74294;DHT22;64044;59.904;10.738;2022-12-07T07:02:54;-1.40;62.70
74294;DHT22;64044;59.904;10.738;2022-12-07T07:05:19;-1.40;62.70
74294;DHT22;64044;59.904;10.738;2022-12-07T07:07:48;-1.40;62.80
74294;DHT22;64044;59.904;10.738;2022-12-07T07:10:14;-1.40;62.80
74294;DHT22;64044;59.904;10.738;2022-12-07T07:12:39;-1.40;63.00
74294;DHT22;64044;59.904;10.738;2022-12-07T07:15:05;-1.40;62.80
74294;DHT22;64044;59.904;10.738;2022-12-07T07:17:31;-1.40;62.80
74294;DHT22;64044;59.904;10.738;2022-12-07T07:19:56;-1.50;62.70
74294;DHT22;64044;59.904;10.738;2022-12-07T07:22:22;-1.50;63.00
74294;DHT22;64044;59.904;10.738;2022-12-07T07:24:48;-1.50;63.00
74294;DHT22;64044;59.904;10.738;2022-12-07T07:27:13;-1.50;63.10
74294;DHT22;64044;59.904;10.738;2022-12-07T07:29:39;-1.60;62.90
74294;DHT22;64044;59.904;10.738;2022-12-07T07:32:05;-1.60;62.90
74294;DHT22;64044;59.904;10.738;2022-12-07T07:34:30;-1.60;62.80
74294;DHT22;64044;59.904;10.738;2022-12-07T07:36:56;-1.60;62.70
74294;DHT22;64044;59.904;10.738;2022-12-07T07:39:21;-1.70;62.80
74294;DHT22;64044;59.904;10.738;2022-12-07T07:41:47;-1.70;62.80
74294;DHT22;64044;59.904;10.738;2022-12-07T07:44:13;-1.70;62.80
74294;DHT22;64044;59.904;10.738;2022-12-07T07:46:38;-1.70;63.00
74294;DHT22;64044;59.904;10.738;2022-12-07T07:49:04;-1.80;63.00
74294;DHT22;64044;59.904;10.738;2022-12-07T07:51:29;-1.80;62.90
74294;DHT22;64044;59.904;10.738;2022-12-07T07:53:55;-1.80;62.90
74294;DHT22;64044;59.904;10.738;2022-12-07T07:56:21;-1.90;62.90
74294;DHT22;64044;59.904;10.738;2022-12-07T07:58:46;-1.90;63.10
74294;DHT22;64044;59.904;10.738;2022-12-07T08:01:12;-1.90;63.30
74294;DHT22;64044;59.904;10.738;2022-12-07T08:03:39;-1.90;63.40
74294;DHT22;64044;59.904;10.738;2022-12-07T08:06:05;-1.90;63.30
74294;DHT22;64044;59.904;10.738;2022-12-07T08:08:31;-1.90;63.30
74294;DHT22;64044;59.904;10.738;2022-12-07T08:10:56;-1.90;63.30
74294;DHT22;64044;59.904;10.738;2022-12-07T08:13:25;-2.00;63.60
74294;DHT22;64044;59.904;10.738;2022-12-07T08:15:51;-1.90;63.90
74294;DHT22;64044;59.904;10.738;2022-12-07T08:18:17;-1.90;64.10
74294;DHT22;64044;59.904;10.738;2022-12-07T08:20:43;-1.90;64.30
74294;DHT22;64044;59.904;10.738;2022-12-07T08:23:09;-2.00;64.70
74294;DHT22;64044;59.904;10.738;2022-12-07T08:25:35;-2.00;65.10
74294;DHT22;64044;59.904;10.738;2022-12-07T08:28:02;-2.00;65.00
74294;DHT22;64044;59.904;10.738;2022-12-07T08:30:28;-1.90;65.10
74294;DHT22;64044;59.904;10.738;2022-12-07T08:32:55;-2.00;65.00
74294;DHT22;64044;59.904;10.738;2022-12-07T08:35:20;-1.90;65.10
74294;DHT22;64044;59.904;10.738;2022-12-07T08:37:46;-1.90;65.00
74294;DHT22;64044;59.904;10.738;2022-12-07T08:40:12;-1.90;65.00
74294;DHT22;64044;59.904;10.738;2022-12-07T08:42:49;-1.90;65.30
74294;DHT22;64044;59.904;10.738;2022-12-07T08:45:15;-1.90;65.30
74294;DHT22;64044;59.904;10.738;2022-12-07T08:47:58;-1.90;65.20
74294;DHT22;64044;59.904;10.738;2022-12-07T08:50:26;-1.80;65.30
74294;DHT22;64044;59.904;10.738;2022-12-07T08:52:55;-1.80;65.00
74294;DHT22;64044;59.904;10.738;2022-12-07T08:55:22;-1.80;64.90
74294;DHT22;64044;59.904;10.738;2022-12-07T08:57:49;-1.80;64.90
74294;DHT22;64044;59.904;10.738;2022-12-07T09:00:15;-1.70;64.90
74294;DHT22;64044;59.904;10.738;2022-12-07T09:02:43;-1.70;65.10
74294;DHT22;64044;59.904;10.738;2022-12-07T09:05:10;-1.70;65.10
74294;DHT22;64044;59.904;10.738;2022-12-07T09:07:36;-1.70;64.90
74294;DHT22;64044;59.904;10.738;2022-12-07T09:10:03;-1.70;64.80
74294;DHT22;64044;59.904;10.738;2022-12-07T09:12:29;-1.70;64.80
74294;DHT22;64044;59.904;10.738;2022-12-07T09:14:54;-1.70;64.90
74294;DHT22;64044;59.904;10.738;2022-12-07T09:17:20;-1.70;65.20
74294;DHT22;64044;59.904;10.738;2022-12-07T09:19:46;-1.70;65.30
74294;DHT22;64044;59.904;10.738;2022-12-07T09:22:11;-1.60;65.20
74294;DHT22;64044;59.904;10.738;2022-12-07T09:24:37;-1.60;65.10
74294;DHT22;64044;59.904;10.738;2022-12-07T09:27:03;-1.60;64.90
74294;DHT22;64044;59.904;10.738;2022-12-07T09:29:28;-1.60;64.90
74294;DHT22;64044;59.904;10.738;2022-12-07T09:31:54;-1.60;64.80
74294;DHT22;64044;59.904;10.738;2022-12-07T09:34:19;-1.50;64.80
74294;DHT22;64044;59.904;10.738;2022-12-07T09:36:45;-1.50;64.90
74294;DHT22;64044;59.904;10.738;2022-12-07T09:39:11;-1.40;65.00
74294;DHT22;64044;59.904;10.738;2022-12-07T09:41:39;-1.40;65.00
74294;DHT22;64044;59.904;10.738;2022-12-07T09:44:09;-1.40;65.00
74294;DHT22;64044;59.904;10.738;2022-12-07T09:46:37;-1.30;65.10
74294;DHT22;64044;59.904;10.738;2022-12-07T09:49:04;-1.30;64.90
74294;DHT22;64044;59.904;10.738;2022-12-07T09:51:31;-1.20;64.80
74294;DHT22;64044;59.904;10.738;2022-12-07T09:53:57;-1.20;64.70
74294;DHT22;64044;59.904;10.738;2022-12-07T09:56:24;-1.10;64.70
74294;DHT22;64044;59.904;10.738;2022-12-07T09:58:54;-1.00;64.80
74294;DHT22;64044;59.904;10.738;2022-12-07T10:01:23;-0.80;65.10
74294;DHT22;64044;59.904;10.738;2022-12-07T10:03:54;-0.60;65.30
74294;DHT22;64044;59.904;10.738;2022-12-07T10:06:21;-0.50;65.00
74294;DHT22;64044;59.904;10.738;2022-12-07T10:08:47;-0.20;65.00
74294;DHT22;64044;59.904;10.738;2022-12-07T10:11:13;0.00;65.10
74294;DHT22;64044;59.904;10.738;2022-12-07T10:13:48;0.30;65.50
74294;DHT22;64044;59.904;10.738;2022-12-07T10:18:50;1.00;64.80
74294;DHT22;64044;59.904;10.738;2022-12-07T10:21:17;1.30;64.80
74294;DHT22;64044;59.904;10.738;2022-12-07T10:24:05;1.60;64.40
74294;DHT22;64044;59.904;10.738;2022-12-07T10:29:16;2.40;62.90
74294;DHT22;64044;59.904;10.738;2022-12-07T10:31:44;2.70;63.00
74294;DHT22;64044;59.904;10.738;2022-12-07T10:36:50;3.50;60.00
74294;DHT22;64044;59.904;10.738;2022-12-07T10:39:21;3.80;60.30
74294;DHT22;64044;59.904;10.738;2022-12-07T10:42:03;4.10;59.20
74294;DHT22;64044;59.904;10.738;2022-12-07T10:44:31;4.30;57.80
74294;DHT22;64044;59.904;10.738;2022-12-07T11:01:14;5.70;57.90
74294;DHT22;64044;59.904;10.738;2022-12-07T11:06:39;6.60;56.70
74294;DHT22;64044;59.904;10.738;2022-12-07T11:09:35;7.00;55.40
74294;DHT22;64044;59.904;10.738;2022-12-07T11:12:11;7.50;54.40
74294;DHT22;64044;59.904;10.738;2022-12-07T11:15:31;7.90;55.00
74294;DHT22;64044;59.904;10.738;2022-12-07T11:17:52;8.40;53.40
74294;DHT22;64044;59.904;10.738;2022-12-07T11:20:39;8.80;52.80
74294;DHT22;64044;59.904;10.738;2022-12-07T11:23:18;9.30;51.70
74294;DHT22;64044;59.904;10.738;2022-12-07T11:26:04;9.70;51.60
74294;DHT22;64044;59.904;10.738;2022-12-07T11:31:09;10.50;50.30
74294;DHT22;64044;59.904;10.738;2022-12-07T11:33:45;10.80;48.30
74294;DHT22;64044;59.904;10.738;2022-12-07T11:36:30;11.20;49.00
74294;DHT22;64044;59.904;10.738;2022-12-07T11:39:01;11.50;46.80
74294;DHT22;64044;59.904;10.738;2022-12-07T11:41:34;11.90;46.80
74294;DHT22;64044;59.904;10.738;2022-12-07T11:49:13;12.40;43.50
74294;DHT22;64044;59.904;10.738;2022-12-07T11:51:43;12.30;41.40
74294;DHT22;64044;59.904;10.738;2022-12-07T11:54:32;12.10;41.80
74294;DHT22;64044;59.904;10.738;2022-12-07T11:57:05;11.70;39.80
74294;DHT22;64044;59.904;10.738;2022-12-07T11:59:45;11.30;40.70
74294;DHT22;64044;59.904;10.738;2022-12-07T12:02:28;10.70;39.80
74294;DHT22;64044;59.904;10.738;2022-12-07T12:05:16;10.20;40.20
74294;DHT22;64044;59.904;10.738;2022-12-07T12:07:44;9.70;40.30
74294;DHT22;64044;59.904;10.738;2022-12-07T12:11:00;9.20;41.70
74294;DHT22;64044;59.904;10.738;2022-12-07T12:19:23;7.60;43.30
74294;DHT22;64044;59.904;10.738;2022-12-07T12:21:55;7.20;43.50
74294;DHT22;64044;59.904;10.738;2022-12-07T12:27:33;6.40;44.50
74294;DHT22;64044;59.904;10.738;2022-12-07T12:30:02;6.00;44.70
74294;DHT22;64044;59.904;10.738;2022-12-07T12:34:58;5.40;45.70
74294;DHT22;64044;59.904;10.738;2022-12-07T12:42:51;4.70;46.40
74294;DHT22;64044;59.904;10.738;2022-12-07T12:45:36;4.60;47.00
74294;DHT22;64044;59.904;10.738;2022-12-07T12:48:03;4.40;47.10
74294;DHT22;64044;59.904;10.738;2022-12-07T12:50:34;4.20;47.90
74294;DHT22;64044;59.904;10.738;2022-12-07T13:00:46;3.70;48.80
74294;DHT22;64044;59.904;10.738;2022-12-07T13:03:31;3.60;49.00
74294;DHT22;64044;59.904;10.738;2022-12-07T13:06:19;3.50;49.30
74294;DHT22;64044;59.904;10.738;2022-12-07T13:08:45;3.50;49.50
74294;DHT22;64044;59.904;10.738;2022-12-07T13:11:35;3.40;49.80
74294;DHT22;64044;59.904;10.738;2022-12-07T13:20:01;3.10;50.00
74294;DHT22;64044;59.904;10.738;2022-12-07T13:24:57;3.00;50.30
74294;DHT22;64044;59.904;10.738;2022-12-07T13:27:25;3.00;50.50
74294;DHT22;64044;59.904;10.738;2022-12-07T13:29:53;3.00;50.50
74294;DHT22;64044;59.904;10.738;2022-12-07T13:32:27;2.90;50.60
74294;DHT22;64044;59.904;10.738;2022-12-07T13:34:53;2.90;50.70
74294;DHT22;64044;59.904;10.738;2022-12-07T13:37:32;2.80;50.70
74294;DHT22;64044;59.904;10.738;2022-12-07T13:40:19;2.80;50.60
74294;DHT22;64044;59.904;10.738;2022-12-07T13:42:45;2.80;50.70
74294;DHT22;64044;59.904;10.738;2022-12-07T13:45:31;2.70;51.10
74294;DHT22;64044;59.904;10.738;2022-12-07T13:51:02;2.70;51.60
74294;DHT22;64044;59.904;10.738;2022-12-07T13:53:28;2.70;51.80
74294;DHT22;64044;59.904;10.738;2022-12-07T13:55:57;2.70;52.10
74294;DHT22;64044;59.904;10.738;2022-12-07T13:58:23;2.70;52.30
74294;DHT22;64044;59.904;10.738;2022-12-07T14:00:49;2.70;52.50
74294;DHT22;64044;59.904;10.738;2022-12-07T14:05:42;2.60;52.70
74294;DHT22;64044;59.904;10.738;2022-12-07T14:10:42;2.70;53.00
74294;DHT22;64044;59.904;10.738;2022-12-07T14:13:34;2.70;53.10
74294;DHT22;64044;59.904;10.738;2022-12-07T14:16:28;2.70;53.40
74294;DHT22;64044;59.904;10.738;2022-12-07T14:18:53;2.70;53.50
74294;DHT22;64044;59.904;10.738;2022-12-07T14:21:22;2.70;53.60
74294;DHT22;64044;59.904;10.738;2022-12-07T14:26:35;2.70;53.80
74294;DHT22;64044;59.904;10.738;2022-12-07T14:29:20;2.70;53.80
74294;DHT22;64044;59.904;10.738;2022-12-07T14:31:46;2.60;54.00
74294;DHT22;64044;59.904;10.738;2022-12-07T14:34:12;2.60;54.00
74294;DHT22;64044;59.904;10.738;2022-12-07T14:36:38;2.60;54.30
74294;DHT22;64044;59.904;10.738;2022-12-07T14:39:04;2.50;54.40
74294;DHT22;64044;59.904;10.738;2022-12-07T14:41:29;2.50;54.50
74294;DHT22;64044;59.904;10.738;2022-12-07T14:44:13;2.40;54.60
74294;DHT22;64044;59.904;10.738;2022-12-07T14:46:39;2.40;54.60
74294;DHT22;64044;59.904;10.738;2022-12-07T14:49:05;2.40;54.80
74294;DHT22;64044;59.904;10.738;2022-12-07T14:51:31;2.30;54.80
74294;DHT22;64044;59.904;10.738;2022-12-07T14:53:57;2.30;54.90
74294;DHT22;64044;59.904;10.738;2022-12-07T14:56:23;2.20;55.20
74294;DHT22;64044;59.904;10.738;2022-12-07T14:58:53;2.20;55.40
74294;DHT22;64044;59.904;10.738;2022-12-07T15:01:19;2.20;55.30
74294;DHT22;64044;59.904;10.738;2022-12-07T15:03:44;2.10;55.40
74294;DHT22;64044;59.904;10.738;2022-12-07T15:06:14;2.10;55.50
74294;DHT22;64044;59.904;10.738;2022-12-07T15:08:40;2.10;55.40
74294;DHT22;64044;59.904;10.738;2022-12-07T15:11:05;2.00;55.10
74294;DHT22;64044;59.904;10.738;2022-12-07T15:13:31;2.00;55.20
74294;DHT22;64044;59.904;10.738;2022-12-07T15:16:19;2.00;55.30
74294;DHT22;64044;59.904;10.738;2022-12-07T15:18:46;1.90;54.90
74294;DHT22;64044;59.904;10.738;2022-12-07T15:21:14;1.80;54.30
74294;DHT22;64044;59.904;10.738;2022-12-07T15:23:39;1.80;54.30
74294;DHT22;64044;59.904;10.738;2022-12-07T15:26:05;1.70;54.90
74294;DHT22;64044;59.904;10.738;2022-12-07T15:28:31;1.70;54.30
74294;DHT22;64044;59.904;10.738;2022-12-07T15:30:57;1.70;54.60
74294;DHT22;64044;59.904;10.738;2022-12-07T15:33:22;1.70;54.70
74294;DHT22;64044;59.904;10.738;2022-12-07T15:35:48;1.60;54.80
74294;DHT22;64044;59.904;10.738;2022-12-07T15:38:13;1.70;54.80
74294;DHT22;64044;59.904;10.738;2022-12-07T15:40:39;1.60;54.90
74294;DHT22;64044;59.904;10.738;2022-12-07T15:43:05;1.60;55.30
74294;DHT22;64044;59.904;10.738;2022-12-07T15:45:50;1.60;54.80
74294;DHT22;64044;59.904;10.738;2022-12-07T15:48:16;1.50;54.90
74294;DHT22;64044;59.904;10.738;2022-12-07T15:50:42;1.60;54.90
74294;DHT22;64044;59.904;10.738;2022-12-07T15:53:08;1.50;55.00
74294;DHT22;64044;59.904;10.738;2022-12-07T15:55:33;1.50;55.20
74294;DHT22;64044;59.904;10.738;2022-12-07T15:57:59;1.40;55.40
74294;DHT22;64044;59.904;10.738;2022-12-07T16:00:26;1.30;55.10
74294;DHT22;64044;59.904;10.738;2022-12-07T16:02:52;1.30;55.00
74294;DHT22;64044;59.904;10.738;2022-12-07T16:05:17;1.30;55.00
74294;DHT22;64044;59.904;10.738;2022-12-07T16:07:43;1.20;55.30
74294;DHT22;64044;59.904;10.738;2022-12-07T16:10:11;1.20;55.50
74294;DHT22;64044;59.904;10.738;2022-12-07T16:12:37;1.10;55.50
74294;DHT22;64044;59.904;10.738;2022-12-07T16:15:03;1.10;55.60
74294;DHT22;64044;59.904;10.738;2022-12-07T16:17:28;1.10;55.70
74294;DHT22;64044;59.904;10.738;2022-12-07T16:19:54;1.00;55.60
74294;DHT22;64044;59.904;10.738;2022-12-07T16:22:19;1.00;55.50
74294;DHT22;64044;59.904;10.738;2022-12-07T16:24:45;0.90;55.50
74294;DHT22;64044;59.904;10.738;2022-12-07T16:27:11;0.90;55.50
74294;DHT22;64044;59.904;10.738;2022-12-07T16:29:36;0.80;55.50
74294;DHT22;64044;59.904;10.738;2022-12-07T16:32:02;0.80;55.80
74294;DHT22;64044;59.904;10.738;2022-12-07T16:34:28;0.70;55.70
74294;DHT22;64044;59.904;10.738;2022-12-07T16:36:53;0.70;55.80
74294;DHT22;64044;59.904;10.738;2022-12-07T16:39:19;0.60;56.10
74294;DHT22;64044;59.904;10.738;2022-12-07T16:41:45;0.60;56.50
74294;DHT22;64044;59.904;10.738;2022-12-07T16:44:11;0.50;56.60
74294;DHT22;64044;59.904;10.738;2022-12-07T16:46:38;0.50;57.40
74294;DHT22;64044;59.904;10.738;2022-12-07T16:49:04;0.50;56.70
74294;DHT22;64044;59.904;10.738;2022-12-07T16:51:30;0.40;56.70
74294;DHT22;64044;59.904;10.738;2022-12-07T16:53:56;0.40;56.60
74294;DHT22;64044;59.904;10.738;2022-12-07T16:56:22;0.40;56.90
74294;DHT22;64044;59.904;10.738;2022-12-07T16:58:48;0.30;57.00
74294;DHT22;64044;59.904;10.738;2022-12-07T17:01:20;0.30;57.00
74294;DHT22;64044;59.904;10.738;2022-12-07T17:03:48;0.20;57.30
74294;DHT22;64044;59.904;10.738;2022-12-07T17:06:19;0.20;57.30
74294;DHT22;64044;59.904;10.738;2022-12-07T17:08:46;0.20;57.70
74294;DHT22;64044;59.904;10.738;2022-12-07T17:11:26;0.20;57.90
74294;DHT22;64044;59.904;10.738;2022-12-07T17:13:52;0.10;58.00
74294;DHT22;64044;59.904;10.738;2022-12-07T17:16:37;0.10;57.90
74294;DHT22;64044;59.904;10.738;2022-12-07T17:19:08;0.10;57.90
74294;DHT22;64044;59.904;10.738;2022-12-07T17:21:34;0.10;58.00
74294;DHT22;64044;59.904;10.738;2022-12-07T17:24:00;0.10;59.10
74294;DHT22;64044;59.904;10.738;2022-12-07T17:26:27;0.10;58.40
74294;DHT22;64044;59.904;10.738;2022-12-07T17:28:53;0.00;58.40
74294;DHT22;64044;59.904;10.738;2022-12-07T17:31:20;0.00;58.30
74294;DHT22;64044;59.904;10.738;2022-12-07T17:33:46;0.00;58.40
74294;DHT22;64044;59.904;10.738;2022-12-07T17:36:18;-0.10;58.40
74294;DHT22;64044;59.904;10.738;2022-12-07T17:38:45;-0.10;58.50
74294;DHT22;64044;59.904;10.738;2022-12-07T17:41:12;-0.10;58.50